createdAt,value
2018-06-19T00:00:31.730Z,0
2018-06-19T00:01:12.116Z,0
2018-06-19T00:01:52.518Z,0
2018-06-19T00:02:32.970Z,0
2018-06-19T00:03:13.363Z,0
2018-06-19T00:03:53.729Z,0
2018-06-19T00:04:34.184Z,0
2018-06-19T00:05:14.572Z,0
2018-06-19T00:05:55.663Z,0
2018-06-19T00:06:36.096Z,0
2018-06-19T00:07:16.523Z,0
2018-06-19T00:07:56.906Z,0
2018-06-19T00:08:37.303Z,0
2018-06-19T00:09:17.695Z,0
2018-06-19T00:09:58.160Z,0
2018-06-19T00:10:38.566Z,0
2018-06-19T00:11:19.007Z,0
2018-06-19T00:11:59.368Z,0
2018-06-19T00:12:39.734Z,0
2018-06-19T00:13:20.124Z,0
2018-06-19T00:14:00.565Z,0
2018-06-19T00:14:41.040Z,0
2018-06-19T00:15:21.395Z,0
2018-06-19T00:16:01.724Z,0
2018-06-19T00:16:42.183Z,0
2018-06-19T00:17:22.587Z,0
2018-06-19T00:18:02.971Z,0
2018-06-19T00:18:43.443Z,0
2018-06-19T00:19:23.787Z,0
2018-06-19T00:20:04.237Z,0
2018-06-19T00:20:44.677Z,0
2018-06-19T00:21:25.103Z,0
2018-06-19T00:22:05.592Z,0
2018-06-19T00:22:46.094Z,0
2018-06-19T00:23:26.474Z,0
2018-06-19T00:24:06.837Z,0
2018-06-19T00:24:47.275Z,0
2018-06-19T00:25:27.654Z,0
2018-06-19T00:26:08.074Z,0
2018-06-19T00:26:48.513Z,0
2018-06-19T00:27:28.896Z,0
2018-06-19T00:28:09.385Z,0
2018-06-19T00:28:49.740Z,0
2018-06-19T00:29:30.132Z,0
2018-06-19T00:30:10.479Z,0
2018-06-19T00:30:50.961Z,0
2018-06-19T00:31:31.367Z,0
2018-06-19T00:32:11.778Z,0
2018-06-19T00:32:52.128Z,0
2018-06-19T00:33:32.750Z,0
2018-06-19T00:34:13.097Z,0
2018-06-19T00:34:53.459Z,0
2018-06-19T00:35:34.071Z,0
2018-06-19T00:36:14.458Z,0
2018-06-19T00:36:54.792Z,0
2018-06-19T00:37:35.236Z,0
2018-06-19T00:38:15.577Z,0
2018-06-19T00:38:56.012Z,0
2018-06-19T00:39:36.471Z,0
2018-06-19T00:40:16.909Z,0
2018-06-19T00:40:57.435Z,0
2018-06-19T00:41:37.703Z,0
2018-06-19T00:42:18.123Z,0
2018-06-19T00:42:58.673Z,0
2018-06-19T00:43:39.006Z,0
2018-06-19T00:44:19.491Z,0
2018-06-19T00:44:59.866Z,0
2018-06-19T00:45:40.217Z,0
2018-06-19T00:46:20.652Z,0
2018-06-19T00:47:01.028Z,0
2018-06-19T00:47:41.613Z,0
2018-06-19T00:48:21.946Z,0
2018-06-19T00:49:02.526Z,0
2018-06-19T00:49:43.088Z,0
2018-06-19T00:50:23.661Z,0
2018-06-19T00:51:04.002Z,0
2018-06-19T00:51:44.438Z,0
2018-06-19T00:52:24.824Z,0
2018-06-19T00:53:05.440Z,0
2018-06-19T00:53:45.780Z,0
2018-06-19T00:54:26.283Z,0
2018-06-19T00:55:06.704Z,0
2018-06-19T00:55:47.085Z,0
2018-06-19T00:56:27.627Z,0
2018-06-19T00:57:08.041Z,0
2018-06-19T00:57:48.428Z,0
2018-06-19T00:58:28.769Z,0
2018-06-19T00:59:09.212Z,0
2018-06-19T00:59:49.577Z,0
2018-06-19T01:00:30.063Z,0
2018-06-19T01:01:10.383Z,0
2018-06-19T01:01:50.750Z,0
2018-06-19T01:02:31.188Z,0
2018-06-19T01:03:11.607Z,0
2018-06-19T01:03:52.094Z,0
2018-06-19T01:04:32.410Z,0
2018-06-19T01:05:12.777Z,0
2018-06-19T01:05:53.223Z,0
2018-06-19T01:06:33.602Z,0
2018-06-19T01:07:13.999Z,0
2018-06-19T01:07:54.444Z,0
2018-06-19T01:08:34.877Z,0
2018-06-19T01:09:15.233Z,0
2018-06-19T01:09:55.619Z,0
2018-06-19T01:10:35.961Z,0
2018-06-19T01:11:16.308Z,0
2018-06-19T01:11:56.923Z,0
2018-06-19T01:12:37.291Z,0
2018-06-19T01:13:17.756Z,0
2018-06-19T01:13:58.137Z,0
2018-06-19T01:14:38.563Z,0
2018-06-19T01:15:18.867Z,0
2018-06-19T01:15:59.345Z,0
2018-06-19T01:16:39.720Z,0
2018-06-19T01:17:20.086Z,0
2018-06-19T01:18:00.584Z,0
2018-06-19T01:18:40.896Z,0
2018-06-19T01:19:21.288Z,0
2018-06-19T01:20:01.773Z,0
2018-06-19T01:20:42.154Z,0
2018-06-19T01:21:22.553Z,0
2018-06-19T01:22:02.920Z,0
2018-06-19T01:22:43.321Z,0
2018-06-19T01:23:23.719Z,0
2018-06-19T01:24:04.145Z,0
2018-06-19T01:24:44.534Z,0
2018-06-19T01:25:24.917Z,0
2018-06-19T01:26:05.323Z,0
2018-06-19T01:26:45.721Z,0
2018-06-19T01:27:26.125Z,0
2018-06-19T01:28:07.089Z,0
2018-06-19T01:28:47.548Z,0
2018-06-19T01:29:27.943Z,0
2018-06-19T01:30:08.322Z,0
2018-06-19T01:30:48.771Z,0
2018-06-19T01:31:29.159Z,0
2018-06-19T01:32:09.598Z,0
2018-06-19T01:32:50.081Z,0
2018-06-19T01:33:30.407Z,0
2018-06-19T01:34:10.815Z,0
2018-06-19T01:34:51.125Z,0
2018-06-19T01:35:31.672Z,0
2018-06-19T01:36:12.029Z,0
2018-06-19T01:36:52.426Z,0
2018-06-19T01:37:32.883Z,0
2018-06-19T01:38:13.441Z,0
2018-06-19T01:38:53.609Z,0
2018-06-19T01:39:34.031Z,0
2018-06-19T01:40:14.487Z,0
2018-06-19T01:40:54.849Z,0
2018-06-19T01:41:35.304Z,0
2018-06-19T01:42:15.654Z,0
2018-06-19T01:42:56.071Z,0
2018-06-19T01:43:36.480Z,0
2018-06-19T01:44:16.833Z,0
2018-06-19T01:44:57.223Z,0
2018-06-19T01:45:37.686Z,0
2018-06-19T01:46:17.974Z,0
2018-06-19T01:46:58.443Z,0
2018-06-19T01:47:38.822Z,0
2018-06-19T01:48:19.227Z,0
2018-06-19T01:48:59.639Z,0
2018-06-19T01:49:39.997Z,0
2018-06-19T01:50:20.400Z,0
2018-06-19T01:51:00.837Z,0
2018-06-19T01:51:41.212Z,0
2018-06-19T01:52:21.689Z,0
2018-06-19T01:53:02.139Z,0
2018-06-19T01:53:42.520Z,0
2018-06-19T01:54:22.901Z,0
2018-06-19T01:55:03.280Z,0
2018-06-19T01:55:43.690Z,0
2018-06-19T01:56:24.091Z,0
2018-06-19T01:57:04.497Z,0
2018-06-19T01:57:44.906Z,0
2018-06-19T01:58:25.385Z,0
2018-06-19T01:59:05.780Z,0
2018-06-19T01:59:46.257Z,0
2018-06-19T02:00:26.660Z,0
2018-06-19T02:01:07.069Z,0
2018-06-19T02:01:47.391Z,0
2018-06-19T02:02:27.809Z,0
2018-06-19T02:04:43.487Z,0
2018-06-19T02:05:23.986Z,0
2018-06-19T02:06:04.313Z,0
2018-06-19T02:06:44.729Z,0
2018-06-19T02:07:25.163Z,0
2018-06-19T02:08:05.512Z,0
2018-06-19T02:08:45.973Z,0
2018-06-19T02:09:26.346Z,0
2018-06-19T02:10:06.742Z,0
2018-06-19T02:10:47.101Z,0
2018-06-19T02:11:27.577Z,0
2018-06-19T02:12:07.939Z,0
2018-06-19T02:12:48.456Z,0
2018-06-19T02:13:28.784Z,0
2018-06-19T02:14:09.178Z,0
2018-06-19T02:14:49.602Z,0
2018-06-19T02:15:30.013Z,0
2018-06-19T02:16:10.392Z,0
2018-06-19T02:16:50.773Z,0
2018-06-19T02:17:31.153Z,0
2018-06-19T02:18:11.636Z,0
2018-06-19T02:18:52.025Z,0
2018-06-19T02:19:32.380Z,0
2018-06-19T02:20:12.794Z,0
2018-06-19T02:20:53.219Z,0
2018-06-19T02:21:33.660Z,0
2018-06-19T02:22:14.083Z,0
2018-06-19T02:22:54.452Z,0
2018-06-19T02:23:34.874Z,0
2018-06-19T02:24:15.385Z,0
2018-06-19T02:24:55.707Z,0
2018-06-19T02:25:36.179Z,0
2018-06-19T02:26:16.533Z,0
2018-06-19T02:26:57.004Z,0
2018-06-19T02:27:37.327Z,0
2018-06-19T02:28:17.730Z,0
2018-06-19T02:28:58.073Z,0
2018-06-19T02:29:38.473Z,0
2018-06-19T02:30:18.872Z,0
2018-06-19T02:30:59.290Z,0
2018-06-19T02:31:39.685Z,0
2018-06-19T02:32:20.149Z,0
2018-06-19T02:33:00.524Z,0
2018-06-19T02:33:40.883Z,0
2018-06-19T02:34:21.251Z,0
2018-06-19T02:35:01.629Z,0
2018-06-19T02:35:41.977Z,0
2018-06-19T02:36:22.444Z,0
2018-06-19T02:37:02.851Z,0
2018-06-19T02:37:43.175Z,0
2018-06-19T02:38:23.598Z,0
2018-06-19T02:39:03.973Z,0
2018-06-19T02:39:44.365Z,0
2018-06-19T02:40:24.756Z,0
2018-06-19T02:41:05.251Z,0
2018-06-19T02:41:45.627Z,0
2018-06-19T02:42:26.022Z,0
2018-06-19T02:43:06.410Z,0
2018-06-19T02:43:46.857Z,0
2018-06-19T02:44:27.291Z,0
2018-06-19T02:45:07.690Z,0
2018-06-19T02:45:48.061Z,0
2018-06-19T02:46:28.479Z,0
2018-06-19T02:47:08.872Z,0
2018-06-19T02:47:49.276Z,0
2018-06-19T02:48:29.699Z,0
2018-06-19T02:49:10.067Z,0
2018-06-19T02:49:50.471Z,0
2018-06-19T02:50:30.860Z,0
2018-06-19T02:51:11.328Z,0
2018-06-19T02:51:51.648Z,0
2018-06-19T02:52:32.012Z,0
2018-06-19T02:53:12.387Z,0
2018-06-19T02:53:52.835Z,0
2018-06-19T02:54:33.291Z,0
2018-06-19T02:55:13.641Z,0
2018-06-19T02:55:53.976Z,0
2018-06-19T02:56:34.392Z,0
2018-06-19T02:57:14.726Z,0
2018-06-19T02:57:55.168Z,0
2018-06-19T02:58:35.560Z,0
2018-06-19T02:59:15.959Z,0
2018-06-19T02:59:56.373Z,0
2018-06-19T03:00:36.811Z,0
2018-06-19T03:01:17.186Z,0
2018-06-19T03:01:57.611Z,0
2018-06-19T03:02:38.020Z,0
2018-06-19T03:03:18.414Z,0
2018-06-19T03:03:58.808Z,0
2018-06-19T03:04:39.171Z,0
2018-06-19T03:05:19.598Z,0
2018-06-19T03:06:00.002Z,0
2018-06-19T03:06:40.335Z,0
2018-06-19T03:07:20.777Z,0
2018-06-19T03:08:01.110Z,0
2018-06-19T03:08:41.617Z,0
2018-06-19T03:09:21.959Z,0
2018-06-19T03:10:02.296Z,0
2018-06-19T03:10:42.804Z,0
2018-06-19T03:11:23.222Z,0
2018-06-19T03:12:03.594Z,0
2018-06-19T03:12:43.984Z,0
2018-06-19T03:13:24.390Z,0
2018-06-19T03:14:04.798Z,0
2018-06-19T03:14:45.188Z,0
2018-06-19T03:15:25.617Z,0
2018-06-19T03:16:06.002Z,0
2018-06-19T03:16:46.372Z,0
2018-06-19T03:17:26.875Z,0
2018-06-19T03:18:07.322Z,0
2018-06-19T03:18:47.762Z,0
2018-06-19T03:19:28.199Z,0
2018-06-19T03:20:08.571Z,0
2018-06-19T03:20:49.035Z,0
2018-06-19T03:21:29.364Z,0
2018-06-19T03:22:09.828Z,0
2018-06-19T03:22:50.220Z,0
2018-06-19T03:23:30.661Z,0
2018-06-19T03:24:10.978Z,0
2018-06-19T03:24:51.430Z,0
2018-06-19T03:25:31.841Z,0
2018-06-19T03:26:12.272Z,0
2018-06-19T03:26:52.685Z,0
2018-06-19T03:27:33.098Z,0
2018-06-19T03:28:13.507Z,0
2018-06-19T03:28:53.889Z,0
2018-06-19T03:29:34.342Z,0
2018-06-19T03:30:14.851Z,0
2018-06-19T03:30:55.217Z,5
2018-06-19T03:31:35.673Z,5
2018-06-19T03:32:16.078Z,5
2018-06-19T03:32:56.507Z,5
2018-06-19T03:33:36.908Z,5
2018-06-19T03:34:17.209Z,5
2018-06-19T03:34:57.740Z,5
2018-06-19T03:35:38.187Z,5
2018-06-19T03:36:18.566Z,5
2018-06-19T03:36:58.966Z,5
2018-06-19T03:37:39.447Z,5
2018-06-19T03:38:19.756Z,5
2018-06-19T03:39:00.208Z,5
2018-06-19T03:39:40.569Z,5
2018-06-19T03:40:21.013Z,5
2018-06-19T03:41:01.413Z,5
2018-06-19T03:41:41.790Z,5
2018-06-19T03:42:22.270Z,5
2018-06-19T03:43:02.594Z,10
2018-06-19T03:43:43.065Z,10
2018-06-19T03:44:23.473Z,10
2018-06-19T03:45:03.839Z,10
2018-06-19T03:45:44.309Z,10
2018-06-19T03:46:24.787Z,10
2018-06-19T03:47:05.201Z,10
2018-06-19T03:47:45.567Z,10
2018-06-19T03:48:26.006Z,10
2018-06-19T03:49:06.400Z,10
2018-06-19T03:49:46.774Z,10
2018-06-19T03:50:27.194Z,10
2018-06-19T03:51:07.629Z,10
2018-06-19T03:51:48.015Z,15
2018-06-19T03:52:28.434Z,15
2018-06-19T03:53:08.879Z,15
2018-06-19T03:53:49.317Z,15
2018-06-19T03:54:29.675Z,15
2018-06-19T03:55:10.083Z,15
2018-06-19T03:55:50.449Z,15
2018-06-19T03:56:30.924Z,15
2018-06-19T03:57:11.387Z,15
2018-06-19T03:57:51.756Z,15
2018-06-19T03:58:32.144Z,20
2018-06-19T03:59:12.537Z,20
2018-06-19T03:59:52.909Z,20
2018-06-19T04:00:33.415Z,20
2018-06-19T04:01:13.884Z,20
2018-06-19T04:01:54.341Z,20
2018-06-19T04:02:34.735Z,20
2018-06-19T04:43:59.152Z,15
2018-06-19T04:44:39.735Z,20
2018-06-19T04:45:20.058Z,25
2018-06-19T04:46:00.473Z,25
2018-06-19T04:46:40.909Z,25
2018-06-19T04:47:21.312Z,25
2018-06-19T04:48:01.785Z,25
2018-06-19T04:48:42.296Z,20
2018-06-19T04:49:22.915Z,15
2018-06-19T04:50:03.390Z,15
2018-06-19T04:50:43.968Z,15
2018-06-19T04:51:24.604Z,15
2018-06-19T04:55:38.352Z,15
2018-06-19T04:56:18.673Z,15
2018-06-19T04:56:59.351Z,15
2018-06-19T04:57:42.388Z,15
2018-06-19T04:58:25.621Z,10
2018-06-19T04:59:06.123Z,10
2018-06-19T04:59:46.511Z,10
2018-06-19T05:00:28.966Z,10
2018-06-19T05:01:09.307Z,10
2018-06-19T05:01:50.382Z,10
2018-06-19T05:02:31.099Z,10
2018-06-19T05:03:11.280Z,10
2018-06-19T05:03:56.349Z,10
2018-06-19T05:04:36.634Z,10
2018-06-19T05:05:17.026Z,10
2018-06-19T05:05:58.458Z,10
2018-06-19T05:06:38.779Z,10
2018-06-19T05:07:19.661Z,10
2018-06-19T05:08:00.739Z,10
2018-06-19T05:08:43.823Z,10
2018-06-19T05:09:26.932Z,10
2018-06-19T05:10:08.081Z,10
2018-06-19T05:10:53.067Z,10
2018-06-19T05:11:29.847Z,5
2018-06-19T05:12:11.060Z,5
2018-06-19T05:12:52.886Z,5
2018-06-19T05:13:33.016Z,5
2018-06-19T05:14:14.405Z,5
2018-06-19T05:14:54.976Z,5
2018-06-19T05:15:35.424Z,5
2018-06-19T05:16:17.068Z,5
2018-06-19T05:16:58.720Z,5
2018-06-19T05:20:11.738Z,5
2018-06-19T05:20:52.522Z,5
2018-06-19T05:21:33.877Z,10
2018-06-19T05:22:14.267Z,10
2018-06-19T05:22:55.653Z,5
2018-06-19T05:23:37.338Z,5
2018-06-19T05:24:23.735Z,5
2018-06-19T05:25:02.402Z,5
2018-06-19T05:25:42.046Z,5
2018-06-19T05:26:24.151Z,5
2018-06-19T05:27:09.139Z,5
2018-06-19T05:27:49.479Z,10
2018-06-19T05:28:30.087Z,10
2018-06-19T05:29:12.349Z,10
2018-06-19T05:37:10.709Z,10
2018-06-19T05:37:51.196Z,10
2018-06-19T05:38:31.937Z,10
2018-06-19T05:43:43.732Z,10
2018-06-19T05:44:23.954Z,15
2018-06-19T05:45:04.638Z,15
2018-06-19T05:45:45.329Z,15
2018-06-19T05:46:25.555Z,15
2018-06-19T05:47:05.959Z,15
2018-06-19T05:47:46.536Z,15
2018-06-19T05:48:26.898Z,10
2018-06-19T05:49:07.399Z,10
2018-06-19T05:49:47.882Z,10
2018-06-19T05:50:28.333Z,10
2018-06-19T05:51:08.787Z,10
2018-06-19T05:51:49.329Z,15
2018-06-19T05:52:29.672Z,15
2018-06-19T05:53:10.900Z,15
2018-06-19T05:53:51.322Z,10
2018-06-19T05:54:31.867Z,10
2018-06-19T05:55:12.289Z,10
2018-06-19T05:55:52.752Z,10
2018-06-19T05:56:33.230Z,10
2018-06-19T05:57:13.600Z,10
2018-06-19T05:57:54.082Z,10
2018-06-19T05:58:34.519Z,10
2018-06-19T05:59:14.874Z,10
2018-06-19T05:59:55.399Z,10
2018-06-19T06:00:35.738Z,10
2018-06-19T06:01:16.276Z,10
2018-06-19T06:01:56.620Z,15
2018-06-19T06:02:37.032Z,15
2018-06-19T06:03:17.456Z,15
2018-06-19T06:03:57.869Z,15
2018-06-19T06:04:38.384Z,15
2018-06-19T06:05:18.874Z,15
2018-06-19T06:05:59.383Z,15
2018-06-19T06:06:39.778Z,15
2018-06-19T06:07:21.024Z,15
2018-06-19T06:08:01.026Z,15
2018-06-19T06:08:41.493Z,15
2018-06-19T06:09:22.194Z,15
2018-06-19T06:10:02.979Z,15
2018-06-19T06:10:43.353Z,15
2018-06-19T06:11:25.541Z,15
2018-06-19T06:12:05.422Z,15
2018-06-19T06:12:45.891Z,15
2018-06-19T06:13:26.420Z,15
2018-06-19T06:14:06.771Z,15
2018-06-19T06:14:48.537Z,15
2018-06-19T06:15:28.381Z,15
2018-06-19T06:16:08.745Z,15
2018-06-19T06:16:49.137Z,15
2018-06-19T06:17:29.618Z,15
2018-06-19T06:18:10.178Z,20
2018-06-19T06:18:50.596Z,20
2018-06-19T06:19:31.071Z,20
2018-06-19T06:20:11.652Z,20
2018-06-19T06:20:52.321Z,20
2018-06-19T06:21:32.724Z,20
2018-06-19T06:22:13.209Z,20
2018-06-19T06:22:53.754Z,20
2018-06-19T06:23:34.041Z,20
2018-06-19T06:24:14.553Z,20
2018-06-19T06:24:54.910Z,20
2018-06-19T06:25:36.084Z,20
2018-06-19T06:26:16.006Z,20
2018-06-19T06:26:56.518Z,25
2018-06-19T06:27:37.135Z,25
2018-06-19T06:28:17.589Z,25
2018-06-19T06:28:58.393Z,25
2018-06-19T06:29:39.035Z,25
2018-06-19T06:30:23.527Z,25
2018-06-19T06:31:04.939Z,25
2018-06-19T06:35:07.536Z,25
2018-06-19T06:35:48.160Z,25
2018-06-19T06:36:28.615Z,25
2018-06-19T06:37:09.604Z,25
2018-06-19T06:37:50.712Z,25
2018-06-19T06:38:32.245Z,25
2018-06-19T06:39:12.945Z,25
2018-06-19T06:39:56.506Z,25
2018-06-19T06:40:42.898Z,25
2018-06-19T06:44:45.049Z,35
2018-06-19T06:53:36.649Z,30
2018-06-19T06:54:17.085Z,30
2018-06-19T06:54:58.372Z,35
2018-06-19T06:55:39.215Z,35
2018-06-19T06:56:20.695Z,35
2018-06-19T06:57:00.933Z,35
2018-06-19T06:57:41.595Z,35
2018-06-19T06:58:22.284Z,35
2018-06-19T06:59:03.639Z,30
2018-06-19T06:59:44.595Z,30
2018-06-19T07:00:24.597Z,30
2018-06-19T07:01:05.191Z,30
2018-06-19T07:01:53.504Z,30
2018-06-19T07:02:31.685Z,30
2018-06-19T07:03:12.103Z,30
2018-06-19T07:03:52.312Z,30
2018-06-19T07:04:33.207Z,30
2018-06-19T07:05:14.633Z,30
2018-06-19T07:05:55.618Z,30
2018-06-19T07:06:35.782Z,30
2018-06-19T07:07:16.989Z,30
2018-06-19T07:07:58.017Z,30
2018-06-19T07:08:39.029Z,25
2018-06-19T07:09:20.642Z,25
2018-06-19T07:10:00.570Z,25
2018-06-19T07:10:40.903Z,25
2018-06-19T07:11:21.296Z,25
2018-06-19T07:12:01.745Z,25
2018-06-19T07:12:43.870Z,25
2018-06-19T07:13:24.344Z,25
2018-06-19T07:14:04.251Z,25
2018-06-19T07:14:44.909Z,25
2018-06-19T07:15:25.195Z,25
2018-06-19T07:16:05.688Z,20
2018-06-19T07:16:46.061Z,20
2018-06-19T07:17:26.504Z,20
2018-06-19T07:18:06.816Z,20
2018-06-19T07:18:47.289Z,20
2018-06-19T07:19:28.055Z,20
2018-06-19T07:20:09.077Z,20
2018-06-19T07:20:49.658Z,20
2018-06-19T07:21:30.082Z,25
2018-06-19T07:22:10.488Z,25
2018-06-19T07:22:50.831Z,25
2018-06-19T07:23:38.635Z,25
2018-06-19T07:24:18.920Z,25
2018-06-19T07:24:59.793Z,25
2018-06-19T07:25:40.877Z,25
2018-06-19T07:26:21.653Z,25
2018-06-19T07:27:01.919Z,25
2018-06-19T07:27:42.761Z,25
2018-06-19T07:28:23.263Z,20
2018-06-19T07:29:03.648Z,20
2018-06-19T07:36:16.479Z,25
2018-06-19T07:36:58.783Z,25
2018-06-19T07:37:38.851Z,25
2018-06-19T07:38:20.961Z,25
2018-06-19T07:39:01.648Z,25
2018-06-19T07:39:41.648Z,25
2018-06-19T07:40:23.655Z,25
2018-06-19T07:41:03.511Z,25
2018-06-19T07:41:45.527Z,25
2018-06-19T07:42:25.210Z,25
2018-06-19T07:43:05.795Z,25
2018-06-19T07:43:47.119Z,25
2018-06-19T07:44:27.625Z,20
2018-06-19T07:45:08.298Z,25
2018-06-19T07:45:49.117Z,25
2018-06-19T07:46:29.881Z,25
2018-06-19T07:47:11.247Z,25
2018-06-19T07:47:51.753Z,25
2018-06-19T07:48:32.427Z,30
2018-06-19T07:49:13.450Z,30
2018-06-19T07:49:53.959Z,35
2018-06-19T07:50:34.438Z,35
2018-06-19T07:51:15.004Z,40
2018-06-19T07:51:55.445Z,40
2018-06-19T07:52:37.016Z,45
2018-06-19T07:53:20.300Z,40
2018-06-19T07:54:03.833Z,40
2018-06-19T07:54:47.589Z,35
2018-06-19T07:55:30.297Z,35
2018-06-19T07:56:11.055Z,35
2018-06-19T07:58:57.266Z,35
2018-06-19T07:59:37.795Z,35
2018-06-19T08:00:18.933Z,35
2018-06-19T08:00:59.369Z,30
2018-06-19T08:01:40.198Z,30
2018-06-19T08:05:21.654Z,35
2018-06-19T08:06:10.512Z,35
2018-06-19T08:06:59.749Z,35
2018-06-19T08:07:49.825Z,40
2018-06-19T08:08:33.156Z,35
2018-06-19T08:09:14.048Z,40
2018-06-19T08:09:54.464Z,35
2018-06-19T08:10:35.097Z,35
2018-06-19T08:11:15.453Z,35
2018-06-19T08:11:56.094Z,40
2018-06-19T08:12:36.541Z,40
2018-06-19T08:13:17.083Z,40
2018-06-19T08:13:58.027Z,40
2018-06-19T08:14:38.210Z,40
2018-06-19T08:15:18.665Z,40
2018-06-19T08:15:59.100Z,45
2018-06-19T08:16:39.724Z,45
2018-06-19T08:17:20.522Z,45
2018-06-19T08:18:00.690Z,45
2018-06-19T08:18:41.226Z,40
2018-06-19T08:19:21.597Z,40
2018-06-19T08:20:02.040Z,40
2018-06-19T08:20:42.488Z,35
2018-06-19T08:21:22.975Z,35
2018-06-19T08:22:03.345Z,35
2018-06-19T08:22:43.794Z,35
2018-06-19T08:23:27.161Z,35
2018-06-19T08:24:07.557Z,35
2018-06-19T08:24:54.810Z,35
2018-06-19T08:25:53.946Z,35
2018-06-19T08:26:34.412Z,40
2018-06-19T08:27:14.880Z,35
2018-06-19T08:27:55.309Z,35
2018-06-19T08:28:35.701Z,40
2018-06-19T08:29:16.126Z,40
2018-06-19T08:29:56.549Z,40
2018-06-19T08:30:36.995Z,40
2018-06-19T08:31:17.469Z,40
2018-06-19T08:31:57.856Z,35
2018-06-19T08:35:50.861Z,35
2018-06-19T08:36:32.498Z,30
2018-06-19T08:37:12.777Z,30
2018-06-19T08:37:53.012Z,30
2018-06-19T08:38:33.529Z,30
2018-06-19T08:39:13.944Z,30
2018-06-19T08:39:55.876Z,30
2018-06-19T08:40:36.336Z,35
2018-06-19T08:41:17.139Z,35
2018-06-19T08:41:58.065Z,35
2018-06-19T08:42:40.258Z,35
2018-06-19T08:43:20.065Z,35
2018-06-19T08:44:01.857Z,35
2018-06-19T08:44:42.572Z,35
2018-06-19T08:45:23.201Z,35
2018-06-19T08:46:04.469Z,30
2018-06-19T08:46:45.187Z,35
2018-06-19T08:47:25.709Z,35
2018-06-19T08:48:07.366Z,35
2018-06-19T08:48:47.278Z,35
2018-06-19T08:49:28.650Z,35
2018-06-19T08:50:10.352Z,35
2018-06-19T08:50:50.419Z,40
2018-06-19T08:51:32.289Z,40
2018-06-19T08:52:13.338Z,40
2018-06-19T08:52:55.496Z,40
2018-06-19T08:53:36.128Z,35
2018-06-19T08:54:17.312Z,35
2018-06-19T08:54:58.281Z,35
2018-06-19T08:55:39.284Z,35
2018-06-19T08:56:19.719Z,35
2018-06-19T08:57:00.917Z,35
2018-06-19T08:57:42.281Z,35
2018-06-19T08:58:22.541Z,35
2018-06-19T08:59:03.798Z,35
2018-06-19T08:59:45.923Z,35
2018-06-19T09:00:26.881Z,35
2018-06-19T09:01:08.274Z,35
2018-06-19T09:01:50.075Z,35
2018-06-19T09:02:30.498Z,35
2018-06-19T09:03:12.311Z,40
2018-06-19T09:03:52.944Z,40
2018-06-19T09:04:33.774Z,40
2018-06-19T09:05:14.441Z,40
2018-06-19T09:05:56.523Z,40
2018-06-19T09:06:36.556Z,40
2018-06-19T09:07:17.785Z,40
2018-06-19T09:07:59.869Z,40
2018-06-19T09:08:41.012Z,40
2018-06-19T09:09:21.404Z,40
2018-06-19T09:10:02.438Z,35
2018-06-19T09:10:44.974Z,35
2018-06-19T09:11:25.459Z,35
2018-06-19T09:12:06.803Z,35
2018-06-19T09:12:47.145Z,35
2018-06-19T09:13:28.593Z,30
2018-06-19T09:14:12.501Z,30
2018-06-19T09:14:53.235Z,30
2018-06-19T09:15:34.591Z,35
2018-06-19T09:16:14.935Z,35
2018-06-19T09:16:55.940Z,35
2018-06-19T09:17:36.825Z,40
2018-06-19T09:18:16.996Z,40
2018-06-19T09:18:59.240Z,40
2018-06-19T09:19:39.534Z,40
2018-06-19T09:20:20.158Z,40
2018-06-19T09:21:02.425Z,35
2018-06-19T09:21:42.960Z,40
2018-06-19T09:22:24.073Z,40
2018-06-19T09:23:06.370Z,40
2018-06-19T09:23:47.248Z,40
2018-06-19T09:24:28.106Z,40
2018-06-19T09:25:09.302Z,40
2018-06-19T09:25:52.659Z,40
2018-06-19T09:26:34.271Z,40
2018-06-19T09:27:16.811Z,40
2018-06-19T09:27:57.222Z,40
2018-06-19T09:28:38.240Z,40
2018-06-19T09:29:19.143Z,35
2018-06-19T09:30:02.011Z,35
2018-06-19T09:30:42.284Z,35
2018-06-19T09:31:26.424Z,35
2018-06-19T09:32:06.497Z,35
2018-06-19T09:32:48.066Z,40
2018-06-19T09:33:29.250Z,40
2018-06-19T09:34:11.156Z,40
2018-06-19T09:34:51.981Z,40
2018-06-19T09:35:32.550Z,40
2018-06-19T09:36:13.919Z,40
2018-06-19T09:36:55.165Z,40
2018-06-19T09:37:37.380Z,40
2018-06-19T09:38:18.456Z,40
2018-06-19T09:38:59.200Z,45
2018-06-19T09:39:41.870Z,45
2018-06-19T09:40:22.709Z,45
2018-06-19T09:41:06.539Z,45
2018-06-19T09:43:28.089Z,40
2018-06-19T09:44:08.591Z,40
2018-06-19T09:44:50.542Z,40
2018-06-19T09:45:32.044Z,40
2018-06-19T09:49:41.338Z,50
2018-06-19T09:50:21.432Z,50
2018-06-19T09:51:02.151Z,55
2018-06-19T09:51:42.578Z,60
2018-06-19T09:52:23.823Z,65
2018-06-19T09:53:04.784Z,65
2018-06-19T09:53:45.406Z,65
2018-06-19T09:54:26.448Z,65
2018-06-19T09:55:06.477Z,65
2018-06-19T09:55:46.889Z,65
2018-06-19T09:56:27.368Z,65
2018-06-19T09:57:08.887Z,60
2018-06-19T09:57:49.328Z,55
2018-06-19T09:58:29.850Z,50
2018-06-19T09:59:10.697Z,45
2018-06-19T09:59:51.257Z,40
2018-06-19T10:00:31.691Z,40
2018-06-19T10:01:12.409Z,40
2018-06-19T10:01:55.052Z,40
2018-06-19T10:02:35.677Z,40
2018-06-19T10:03:19.017Z,40
2018-06-19T10:03:58.738Z,40
2018-06-19T10:43:09.472Z,60
2018-06-19T10:43:50.791Z,55
2018-06-19T10:44:30.888Z,45
2018-06-19T10:45:11.346Z,45
2018-06-19T10:45:51.829Z,45
2018-06-19T10:46:32.227Z,45
2018-06-19T10:47:12.781Z,45
2018-06-19T10:47:53.211Z,45
2018-06-19T10:48:33.618Z,45
2018-06-19T10:49:14.064Z,45
2018-06-19T10:49:54.507Z,40
2018-06-19T10:50:35.078Z,40
2018-06-19T10:51:15.537Z,40
2018-06-19T10:51:56.727Z,40
2018-06-19T10:52:52.943Z,40
2018-06-19T10:53:37.812Z,40
2018-06-19T10:54:18.053Z,45
2018-06-19T10:54:59.228Z,45
2018-06-19T10:55:38.986Z,45
2018-06-19T10:56:22.104Z,45
2018-06-19T10:57:06.970Z,45
2018-06-19T11:07:42.587Z,40
2018-06-19T11:08:22.764Z,40
2018-06-19T11:09:03.574Z,40
2018-06-19T11:09:44.006Z,40
2018-06-19T11:10:25.531Z,40
2018-06-19T11:12:41.281Z,50
2018-06-19T11:13:21.758Z,55
2018-06-19T11:14:02.643Z,55
2018-06-19T11:14:42.974Z,55
2018-06-19T11:15:23.345Z,55
2018-06-19T11:17:55.195Z,60
2018-06-19T11:18:35.731Z,60
2018-06-19T11:19:16.794Z,60
2018-06-19T11:19:57.552Z,60
2018-06-19T11:20:38.144Z,60
2018-06-19T11:21:21.262Z,55
2018-06-19T11:23:53.320Z,55
2018-06-19T11:25:49.142Z,50
2018-06-19T11:26:30.090Z,50
2018-06-19T11:27:11.249Z,55
2018-06-19T11:27:51.703Z,55
2018-06-19T11:28:32.452Z,55
2018-06-19T11:29:14.433Z,50
2018-06-19T11:29:53.862Z,55
2018-06-19T11:30:34.789Z,55
2018-06-19T11:31:15.459Z,55
2018-06-19T11:31:55.931Z,55
2018-06-19T11:32:36.528Z,55
2018-06-19T11:33:19.192Z,55
2018-06-19T11:34:00.296Z,60
2018-06-19T11:34:42.810Z,60
2018-06-19T11:35:23.311Z,60
2018-06-19T11:36:03.640Z,60
2018-06-19T11:36:50.143Z,65
2018-06-19T11:37:30.575Z,65
2018-06-19T11:38:11.834Z,65
2018-06-19T11:38:52.304Z,65
2018-06-19T11:39:33.024Z,65
2018-06-19T11:40:14.102Z,70
2018-06-19T11:40:54.502Z,65
2018-06-19T11:41:37.555Z,65
2018-06-19T11:42:18.095Z,65
2018-06-19T11:43:07.378Z,70
2018-06-19T11:43:49.019Z,70
2018-06-19T11:44:30.344Z,75
2018-06-19T11:45:11.094Z,75
2018-06-19T11:45:52.452Z,75
2018-06-19T11:48:36.741Z,75
2018-06-19T11:49:19.802Z,70
2018-06-19T11:50:00.782Z,65
2018-06-19T11:50:42.820Z,60
2018-06-19T11:51:23.115Z,55
2018-06-19T11:52:03.640Z,55
2018-06-19T11:52:44.562Z,50
2018-06-19T11:53:26.769Z,50
2018-06-19T11:54:09.682Z,45
2018-06-19T11:54:50.406Z,40
2018-06-19T11:55:32.346Z,40
2018-06-19T11:56:11.939Z,40
2018-06-19T12:03:58.902Z,30
2018-06-19T12:04:39.136Z,30
2018-06-19T12:05:19.650Z,30
2018-06-19T12:06:00.194Z,30
2018-06-19T12:06:40.455Z,30
2018-06-19T12:07:20.939Z,30
2018-06-19T12:08:01.355Z,30
2018-06-19T12:08:41.780Z,35
2018-06-19T12:09:22.202Z,35
2018-06-19T12:10:02.582Z,30
2018-06-19T12:10:42.941Z,30
2018-06-19T12:11:23.377Z,30
2018-06-19T12:12:03.843Z,30
2018-06-19T12:12:44.388Z,35
2018-06-19T12:13:25.396Z,35
2018-06-19T12:14:05.927Z,35
2018-06-19T12:14:46.556Z,35
2018-06-19T12:15:27.120Z,35
2018-06-19T12:16:07.687Z,35
2018-06-19T12:16:51.100Z,35
2018-06-19T12:17:33.329Z,35
2018-06-19T12:18:15.924Z,35
2018-06-19T12:18:55.223Z,35
2018-06-19T12:19:36.430Z,40
2018-06-19T12:20:17.460Z,40
2018-06-19T12:21:00.495Z,40
2018-06-19T12:21:41.386Z,40
2018-06-19T12:22:22.029Z,40
2018-06-19T12:23:02.297Z,40
2018-06-19T12:23:42.869Z,40
2018-06-19T12:24:23.207Z,40
2018-06-19T12:25:03.832Z,40
2018-06-19T12:25:44.131Z,40
2018-06-19T12:26:24.634Z,35
2018-06-19T12:27:05.109Z,35
2018-06-19T12:27:46.387Z,35
2018-06-19T12:28:28.693Z,35
2018-06-19T12:29:09.180Z,35
2018-06-19T12:29:49.632Z,35